createdAt,value
2022-09-21T00:01:30.998Z,8.70
2022-09-21T00:04:01.758Z,8.64
2022-09-21T00:06:33.658Z,8.69
2022-09-21T00:09:00.658Z,8.70
2022-09-21T00:11:31.700Z,8.71
2022-09-21T00:14:04.412Z,8.74
2022-09-21T00:16:32.315Z,8.87
2022-09-21T00:19:01.430Z,9.02
2022-09-21T00:21:28.798Z,8.90
2022-09-21T00:23:56.096Z,8.81
2022-09-21T00:26:26.274Z,8.84
2022-09-21T00:28:59.974Z,8.71
2022-09-21T00:31:29.175Z,8.88
2022-09-21T00:33:56.141Z,9.15
2022-09-21T00:36:24.942Z,9.08
2022-09-21T00:38:56.613Z,9.14
2022-09-21T00:41:25.372Z,9.05
2022-09-21T00:44:32.754Z,8.72
2022-09-21T00:47:10.679Z,8.58
2022-09-21T00:49:41.239Z,8.59
2022-09-21T00:52:10.486Z,8.74
2022-09-21T00:54:46.563Z,8.63
2022-09-21T00:57:15.915Z,8.54
2022-09-21T00:59:45.157Z,8.63
2022-09-21T01:02:12.370Z,8.69
2022-09-21T01:04:39.655Z,8.63
2022-09-21T01:07:12.460Z,8.56
2022-09-21T01:09:42.339Z,8.62
2022-09-21T01:12:41.806Z,8.67
2022-09-21T01:15:14.197Z,8.50
2022-09-21T01:17:51.850Z,8.46
2022-09-21T01:20:30.728Z,8.41
2022-09-21T01:23:17.757Z,8.30
2022-09-21T01:26:42.838Z,8.09
2022-09-21T01:29:16.329Z,8.05
2022-09-21T01:31:48.530Z,8.16
2022-09-21T01:34:30.638Z,8.28
2022-09-21T01:37:03.207Z,8.26
2022-09-21T01:39:33.198Z,8.57
2022-09-21T01:42:02.894Z,8.52
2022-09-21T01:44:33.232Z,8.51
2022-09-21T01:47:03.314Z,8.63
2022-09-21T01:49:38.858Z,8.41
2022-09-21T01:52:16.883Z,8.50
2022-09-21T01:54:51.817Z,8.53
2022-09-21T01:57:27.835Z,8.46
2022-09-21T02:00:00.425Z,8.45
2022-09-21T02:02:53.429Z,8.29
2022-09-21T02:05:22.974Z,8.21
2022-09-21T02:07:51.619Z,8.21
2022-09-21T02:10:44.311Z,8.26
2022-09-21T02:13:14.290Z,8.25
2022-09-21T02:16:10.821Z,8.07
2022-09-21T02:19:09.964Z,8.14
2022-09-21T02:22:03.722Z,8.11
2022-09-21T02:24:41.188Z,8.14
2022-09-21T02:27:46.091Z,8.14
2022-09-21T02:30:25.030Z,8.23
2022-09-21T02:33:03.831Z,8.14
2022-09-21T02:36:12.811Z,8.14
2022-09-21T02:38:47.308Z,7.87
2022-09-21T02:42:01.904Z,7.83
2022-09-21T02:45:18.557Z,7.76
2022-09-21T02:48:01.579Z,7.88
2022-09-21T02:50:41.826Z,7.93
2022-09-21T02:53:11.679Z,7.91
2022-09-21T02:55:39.645Z,7.90
2022-09-21T02:58:12.939Z,7.81
2022-09-21T03:00:40.399Z,7.78
2022-09-21T03:03:23.227Z,7.78
2022-09-21T03:05:53.931Z,7.77
2022-09-21T03:08:22.075Z,7.92
2022-09-21T03:10:50.630Z,7.69
2022-09-21T03:13:18.780Z,7.62
2022-09-21T03:15:46.047Z,7.65
2022-09-21T03:18:14.978Z,7.46
2022-09-21T03:20:48.077Z,7.34
2022-09-21T03:23:17.707Z,7.15
2022-09-21T03:25:48.656Z,7.12
2022-09-21T03:28:16.588Z,7.30
2022-09-21T03:30:44.915Z,7.30
2022-09-21T03:33:13.104Z,7.32
2022-09-21T03:35:40.974Z,7.33
2022-09-21T03:38:08.638Z,7.34
2022-09-21T03:40:39.001Z,7.33
2022-09-21T03:43:07.937Z,7.52
2022-09-21T03:45:34.855Z,7.45
2022-09-21T03:48:02.164Z,7.63
2022-09-21T03:50:29.662Z,7.52
2022-09-21T03:52:57.570Z,7.56
2022-09-21T03:55:25.125Z,7.44
2022-09-21T03:57:52.433Z,7.34
2022-09-21T04:00:20.867Z,7.34
2022-09-21T04:02:48.412Z,7.18
2022-09-21T04:05:17.024Z,7.09
2022-09-21T04:07:45.897Z,7.00
2022-09-21T04:10:17.677Z,6.96
2022-09-21T04:12:46.083Z,7.05
2022-09-21T04:15:19.521Z,7.09
2022-09-21T04:17:51.899Z,7.18
2022-09-21T04:20:21.790Z,7.23
2022-09-21T04:22:48.995Z,7.00
2022-09-21T04:25:16.083Z,7.22
2022-09-21T04:27:43.399Z,7.14
2022-09-21T04:30:15.690Z,6.98
2022-09-21T04:32:42.950Z,7.06
2022-09-21T04:35:10.738Z,7.19
2022-09-21T04:37:38.809Z,7.24
2022-09-21T04:40:07.544Z,6.96
2022-09-21T04:42:35.140Z,7.12
2022-09-21T04:45:02.246Z,7.27
2022-09-21T04:47:32.516Z,7.35
2022-09-21T04:49:59.447Z,7.36
2022-09-21T04:52:27.882Z,7.13
2022-09-21T04:54:54.981Z,7.18
2022-09-21T04:57:21.867Z,7.24
2022-09-21T04:59:49.040Z,7.12
2022-09-21T05:02:15.977Z,7.34
2022-09-21T05:04:44.639Z,7.47
2022-09-21T05:07:14.430Z,7.61
2022-09-21T05:09:59.729Z,7.47
2022-09-21T05:12:26.590Z,7.55
2022-09-21T05:14:53.622Z,7.37
2022-09-21T05:17:22.894Z,7.47
2022-09-21T05:19:53.386Z,7.42
2022-09-21T05:22:21.490Z,7.40
2022-09-21T05:24:48.558Z,7.34
2022-09-21T05:27:16.148Z,7.35
2022-09-21T05:29:46.953Z,7.32
2022-09-21T05:32:48.305Z,7.28
2022-09-21T05:35:40.820Z,7.15
2022-09-21T05:38:28.655Z,7.09
2022-09-21T05:40:56.121Z,7.09
2022-09-21T05:43:23.330Z,7.33
2022-09-21T05:46:02.644Z,7.50
2022-09-21T05:48:50.959Z,7.55
2022-09-21T05:52:05.918Z,7.64
2022-09-21T05:55:01.280Z,7.62
2022-09-21T05:57:42.729Z,7.83
2022-09-21T06:00:19.905Z,7.79
2022-09-21T06:03:16.890Z,7.73
2022-09-21T06:05:45.302Z,7.87
2022-09-21T06:08:12.190Z,7.65
2022-09-21T06:10:39.156Z,7.87
2022-09-21T06:13:06.023Z,7.82
2022-09-21T06:15:38.420Z,7.88
2022-09-21T06:18:06.972Z,8.07
2022-09-21T06:20:33.956Z,8.08
2022-09-21T06:23:03.188Z,8.16
2022-09-21T06:25:30.111Z,8.26
2022-09-21T06:28:12.176Z,8.22
2022-09-21T06:30:42.537Z,8.43
2022-09-21T06:33:11.416Z,8.68
2022-09-21T06:35:42.037Z,8.61
2022-09-21T06:38:09.099Z,8.94
2022-09-21T06:40:47.699Z,9.06
2022-09-21T06:43:14.939Z,9.10
2022-09-21T06:45:45.483Z,9.32
2022-09-21T06:48:16.393Z,9.50
2022-09-21T06:50:48.018Z,9.52
2022-09-21T06:53:15.914Z,9.61
2022-09-21T06:55:46.776Z,9.64
2022-09-21T06:58:16.836Z,9.69
2022-09-21T07:00:46.841Z,9.73
2022-09-21T07:03:14.242Z,9.84
2022-09-21T07:05:46.461Z,9.90
2022-09-21T07:11:03.045Z,9.94
2022-09-21T07:13:30.280Z,9.95
2022-09-21T07:15:57.188Z,9.95
2022-09-21T07:18:25.383Z,9.99
2022-09-21T07:20:52.387Z,10.05
2022-09-21T07:23:20.888Z,10.02
2022-09-21T07:25:53.169Z,10.13
2022-09-21T07:28:20.324Z,10.04
2022-09-21T07:30:47.357Z,10.06
2022-09-21T07:33:14.343Z,10.05
2022-09-21T07:35:50.850Z,10.18
2022-09-21T07:38:17.756Z,10.25
2022-09-21T07:40:44.760Z,10.30
2022-09-21T07:43:11.811Z,10.36
2022-09-21T07:45:39.806Z,10.44
2022-09-21T07:48:09.003Z,10.53
2022-09-21T07:50:36.566Z,10.55
2022-09-21T07:53:04.375Z,10.62
2022-09-21T07:55:32.517Z,10.68
2022-09-21T07:58:17.798Z,10.62
2022-09-21T08:00:45.042Z,10.90
2022-09-21T08:03:12.369Z,10.97
2022-09-21T08:05:39.275Z,10.85
2022-09-21T08:08:06.236Z,10.78
2022-09-21T08:10:33.818Z,11.02
2022-09-21T08:13:00.949Z,11.06
2022-09-21T08:15:48.751Z,11.16
2022-09-21T08:18:15.893Z,11.38
2022-09-21T08:20:42.886Z,11.53
2022-09-21T08:23:11.873Z,11.56
2022-09-21T08:25:38.935Z,11.65
2022-09-21T08:28:09.843Z,12.06
2022-09-21T08:30:37.351Z,12.22
2022-09-21T08:33:04.776Z,12.25
2022-09-21T08:35:31.718Z,12.46
2022-09-21T08:37:58.617Z,12.81
2022-09-21T08:40:31.153Z,12.50
2022-09-21T08:43:17.901Z,12.34
2022-09-21T08:45:46.824Z,12.58
2022-09-21T08:48:29.258Z,12.85
2022-09-21T08:51:08.172Z,12.86
2022-09-21T08:53:43.250Z,12.62
2022-09-21T08:56:17.632Z,12.78
2022-09-21T08:58:46.635Z,12.94
2022-09-21T09:01:28.606Z,12.87
2022-09-21T09:04:22.108Z,13.40
2022-09-21T09:07:34.122Z,13.54
2022-09-21T09:10:32.944Z,14.06
2022-09-21T09:14:06.283Z,13.69
2022-09-21T09:16:57.375Z,13.89
2022-09-21T09:19:41.488Z,13.71
2022-09-21T09:22:17.201Z,13.81
2022-09-21T09:24:51.697Z,13.54
2022-09-21T09:27:29.106Z,13.91
2022-09-21T09:30:04.207Z,13.99
2022-09-21T09:33:03.538Z,14.08
2022-09-21T09:36:12.239Z,14.59
2022-09-21T09:38:56.198Z,14.42
2022-09-21T09:41:32.916Z,14.95
2022-09-21T09:44:38.914Z,14.99
2022-09-21T09:47:36.805Z,15.60
2022-09-21T09:50:21.751Z,15.18
2022-09-21T09:53:05.012Z,15.00
2022-09-21T09:55:58.710Z,15.08
2022-09-21T09:58:39.131Z,15.32
2022-09-21T10:01:06.367Z,15.66
2022-09-21T10:03:33.459Z,15.16
2022-09-21T10:06:00.555Z,15.70
2022-09-21T10:08:36.329Z,15.42
2022-09-21T10:11:04.107Z,15.74
2022-09-21T10:13:35.668Z,15.39
2022-09-21T10:16:20.990Z,15.32
2022-09-21T10:18:52.586Z,15.41
2022-09-21T10:21:26.642Z,15.97
2022-09-21T10:24:04.248Z,15.71
2022-09-21T10:26:36.074Z,16.33
2022-09-21T10:29:23.460Z,16.28
2022-09-21T10:32:13.726Z,16.18
2022-09-21T10:35:00.815Z,15.99
2022-09-21T10:37:35.730Z,16.07
2022-09-21T10:40:04.055Z,15.81
2022-09-21T10:42:43.000Z,15.94
2022-09-21T10:45:36.969Z,16.04
2022-09-21T10:48:14.234Z,16.01
2022-09-21T10:50:49.791Z,16.06
2022-09-21T10:53:19.676Z,16.48
2022-09-21T10:56:11.862Z,16.17
2022-09-21T10:59:21.626Z,16.45
2022-09-21T11:01:52.359Z,16.39
2022-09-21T11:04:33.278Z,16.41
2022-09-21T11:07:20.249Z,16.84
2022-09-21T11:10:16.494Z,16.59
2022-09-21T11:13:23.693Z,17.03
2022-09-21T11:16:29.495Z,16.93
2022-09-21T11:19:26.501Z,16.70
2022-09-21T11:22:32.587Z,16.98
2022-09-21T11:25:12.367Z,17.03
2022-09-21T11:27:49.327Z,17.19
2022-09-21T11:30:19.419Z,16.94
2022-09-21T11:33:09.811Z,17.45
2022-09-21T11:35:56.795Z,17.47
2022-09-21T11:39:06.007Z,17.64
2022-09-21T11:42:01.014Z,16.87
2022-09-21T11:45:10.817Z,17.35
2022-09-21T11:48:00.658Z,17.31
2022-09-21T11:50:48.724Z,17.54
2022-09-21T11:53:40.377Z,17.71
2022-09-21T11:56:34.653Z,17.95
2022-09-21T11:59:50.839Z,17.78
2022-09-21T12:02:31.138Z,17.90
2022-09-21T12:05:48.302Z,17.94
2022-09-21T12:09:11.825Z,17.74
2022-09-21T12:11:59.930Z,17.99
2022-09-21T12:14:55.666Z,18.34
2022-09-21T12:17:54.128Z,18.40
2022-09-21T12:21:03.131Z,18.15
2022-09-21T12:24:08.063Z,18.12
2022-09-21T12:26:48.769Z,18.04
2022-09-21T12:29:32.220Z,18.02
2022-09-21T12:32:22.580Z,18.36
2022-09-21T12:34:56.047Z,18.30
2022-09-21T12:37:45.866Z,17.78
2022-09-21T12:40:28.269Z,17.87
2022-09-21T12:43:22.152Z,17.98
2022-09-21T12:45:57.299Z,17.75
2022-09-21T12:48:39.057Z,17.73
2022-09-21T12:51:32.862Z,18.08
2022-09-21T12:54:14.658Z,18.12
2022-09-21T12:56:46.205Z,18.27
2022-09-21T13:02:47.327Z,17.99
2022-09-21T13:06:06.760Z,17.98
2022-09-21T13:08:39.290Z,18.38
2022-09-21T13:11:08.373Z,18.21
2022-09-21T13:14:13.272Z,17.71
2022-09-21T13:16:41.063Z,18.13
2022-09-21T13:19:14.933Z,18.06
2022-09-21T13:21:44.425Z,18.26
2022-09-21T13:24:30.892Z,18.06
2022-09-21T13:27:05.532Z,18.04
2022-09-21T13:29:39.994Z,17.92
2022-09-21T13:32:13.764Z,17.74
2022-09-21T13:34:45.478Z,18.22
2022-09-21T13:37:14.959Z,18.30
2022-09-21T13:39:57.822Z,18.78
2022-09-21T13:42:30.881Z,18.72
2022-09-21T13:44:59.521Z,18.88
2022-09-21T13:47:34.405Z,18.78
2022-09-21T13:50:13.140Z,18.67
2022-09-21T13:52:47.027Z,18.57
2022-09-21T13:55:31.967Z,18.07
2022-09-21T13:58:28.967Z,18.39
2022-09-21T14:00:59.114Z,18.70
2022-09-21T14:03:37.265Z,18.86
2022-09-21T14:06:13.946Z,18.40
2022-09-21T14:08:59.988Z,18.34
2022-09-21T14:11:40.933Z,18.27
2022-09-21T14:14:33.606Z,18.46
2022-09-21T14:17:02.149Z,18.25
2022-09-21T14:19:32.974Z,18.29
2022-09-21T14:22:08.736Z,18.07
2022-09-21T14:24:49.864Z,17.95
2022-09-21T14:27:45.340Z,17.94
2022-09-21T14:30:30.142Z,18.00
2022-09-21T14:33:00.082Z,18.00
2022-09-21T14:35:34.022Z,18.25
2022-09-21T14:38:10.140Z,17.91
2022-09-21T14:40:42.358Z,18.06
2022-09-21T14:43:16.106Z,18.48
2022-09-21T14:46:28.110Z,18.16
2022-09-21T14:49:31.891Z,18.14
2022-09-21T14:52:31.870Z,17.85
2022-09-21T14:55:32.473Z,18.20
2022-09-21T14:58:24.211Z,18.17
2022-09-21T15:00:51.308Z,17.86
2022-09-21T15:03:59.952Z,17.77
2022-09-21T15:06:54.377Z,17.79
2022-09-21T15:10:11.964Z,18.30
2022-09-21T15:13:00.274Z,18.29
2022-09-21T15:15:47.778Z,18.09
2022-09-21T15:18:20.161Z,17.76
2022-09-21T15:21:04.213Z,17.63
2022-09-21T15:23:41.332Z,17.56
2022-09-21T15:26:14.911Z,17.48
2022-09-21T15:29:08.320Z,17.46
2022-09-21T15:31:38.638Z,17.45
2022-09-21T15:34:08.270Z,17.36
2022-09-21T15:36:40.904Z,17.33
2022-09-21T15:39:26.745Z,17.58
2022-09-21T15:42:23.167Z,17.87
2022-09-21T15:45:14.066Z,17.86
2022-09-21T15:47:45.043Z,17.68
2022-09-21T15:50:17.271Z,17.71
2022-09-21T15:53:31.145Z,17.62
2022-09-21T15:56:02.694Z,17.80
2022-09-21T15:58:37.282Z,17.65
2022-09-21T16:01:21.553Z,17.61
2022-09-21T16:03:53.954Z,17.54
2022-09-21T16:06:39.074Z,17.41
2022-09-21T16:09:24.282Z,17.55
2022-09-21T16:11:52.855Z,17.29
2022-09-21T16:14:39.673Z,17.24
2022-09-21T16:17:09.610Z,17.37
2022-09-21T16:19:45.026Z,17.14
2022-09-21T16:22:21.994Z,17.13
2022-09-21T16:24:54.679Z,17.09
2022-09-21T16:27:26.234Z,16.92
2022-09-21T16:29:55.499Z,16.79
2022-09-21T16:32:34.010Z,16.80
2022-09-21T16:35:31.360Z,16.54
2022-09-21T16:37:59.050Z,16.54
2022-09-21T16:40:28.591Z,16.62
2022-09-21T16:42:56.692Z,16.51
2022-09-21T16:45:31.721Z,16.43
2022-09-21T16:47:59.570Z,16.41
2022-09-21T16:50:26.953Z,16.51
2022-09-21T16:52:53.905Z,16.33
2022-09-21T16:55:24.429Z,16.21
2022-09-21T16:57:53.160Z,16.16
2022-09-21T17:00:21.950Z,16.04
2022-09-21T17:02:49.137Z,16.11
2022-09-21T17:05:18.133Z,16.22
2022-09-21T17:07:58.415Z,16.15
2022-09-21T17:10:31.809Z,15.83
2022-09-21T17:12:59.171Z,15.55
2022-09-21T17:15:29.023Z,15.36
2022-09-21T17:17:58.976Z,15.16
2022-09-21T17:20:41.152Z,14.96
2022-09-21T17:23:08.715Z,14.78
2022-09-21T17:25:36.792Z,14.74
2022-09-21T17:28:13.081Z,14.63
2022-09-21T17:30:41.835Z,14.72
2022-09-21T17:33:10.727Z,14.51
2022-09-21T17:35:41.483Z,14.54
2022-09-21T17:38:13.975Z,14.51
2022-09-21T17:40:42.632Z,14.35
2022-09-21T17:43:47.790Z,14.30
2022-09-21T17:46:23.062Z,14.29
2022-09-21T17:48:50.446Z,14.38
2022-09-21T17:51:37.877Z,14.12
2022-09-21T17:54:05.484Z,14.07
2022-09-21T17:57:27.226Z,14.17
2022-09-21T18:00:09.615Z,14.26
2022-09-21T18:02:36.669Z,14.17
2022-09-21T18:05:15.692Z,13.83
2022-09-21T18:07:43.494Z,13.92
2022-09-21T18:10:16.502Z,13.78
2022-09-21T18:13:07.019Z,13.79
2022-09-21T18:16:11.054Z,13.74
2022-09-21T18:18:47.720Z,13.60
2022-09-21T18:21:22.163Z,13.45
2022-09-21T18:24:04.791Z,13.48
2022-09-21T18:26:33.184Z,13.37
2022-09-21T18:29:12.565Z,13.30
2022-09-21T18:32:13.429Z,13.37
2022-09-21T18:35:10.489Z,13.20
2022-09-21T18:38:12.840Z,13.28
2022-09-21T18:40:52.056Z,13.18
2022-09-21T18:43:51.446Z,13.11
2022-09-21T18:46:43.640Z,13.20
2022-09-21T18:49:26.939Z,13.07
2022-09-21T18:52:36.774Z,13.25
2022-09-21T18:55:33.335Z,13.00
2022-09-21T18:58:01.517Z,12.99
2022-09-21T19:00:35.025Z,12.80
2022-09-21T19:03:17.678Z,12.92
2022-09-21T19:06:10.147Z,13.05
2022-09-21T19:09:07.567Z,12.89
2022-09-21T19:11:46.010Z,12.72
2022-09-21T19:14:47.535Z,12.64
2022-09-21T19:17:20.628Z,12.49
2022-09-21T19:20:29.603Z,12.63
2022-09-21T19:23:17.209Z,12.77
2022-09-21T19:26:05.126Z,12.59
2022-09-21T19:29:14.826Z,12.65
2022-09-21T19:31:44.460Z,12.42
2022-09-21T19:34:19.257Z,12.46
2022-09-21T19:36:49.045Z,12.45
2022-09-21T19:39:19.878Z,12.52
2022-09-21T19:42:39.217Z,12.67
2022-09-21T19:45:29.700Z,12.47
2022-09-21T19:48:09.790Z,12.53
2022-09-21T19:50:57.518Z,12.35
2022-09-21T19:53:49.042Z,12.31
2022-09-21T19:56:38.117Z,12.24
2022-09-21T19:59:27.945Z,12.26
2022-09-21T20:02:03.266Z,12.27
2022-09-21T20:04:50.767Z,12.34
2022-09-21T20:07:45.632Z,12.17
2022-09-21T20:10:37.785Z,12.10
2022-09-21T20:13:20.123Z,12.06
2022-09-21T20:16:08.204Z,12.06
2022-09-21T20:18:58.630Z,12.04
2022-09-21T20:21:42.063Z,11.78
2022-09-21T20:24:26.265Z,11.53
2022-09-21T20:26:57.522Z,11.40
2022-09-21T20:29:28.998Z,11.22
2022-09-21T20:32:06.302Z,11.27
2022-09-21T20:34:41.216Z,11.28
2022-09-21T20:37:24.077Z,11.41
2022-09-21T20:39:58.365Z,11.30
2022-09-21T20:42:29.056Z,11.49
2022-09-21T20:44:59.758Z,11.40
2022-09-21T20:47:32.755Z,11.20
2022-09-21T20:50:02.489Z,11.05
2022-09-21T20:52:30.548Z,10.92
2022-09-21T20:55:03.656Z,10.88
2022-09-21T20:57:34.969Z,10.82
2022-09-21T21:00:09.777Z,10.78
2022-09-21T21:02:42.527Z,10.72
2022-09-21T21:05:13.655Z,10.55
2022-09-21T21:07:48.403Z,10.48
2022-09-21T21:10:20.266Z,10.55
2022-09-21T21:12:50.014Z,10.25
2022-09-21T21:15:22.545Z,10.29
2022-09-21T21:17:54.328Z,10.32
2022-09-21T21:20:23.514Z,10.16
2022-09-21T21:22:55.466Z,10.00
2022-09-21T21:25:26.609Z,10.03
2022-09-21T21:27:57.748Z,10.04
2022-09-21T21:30:25.438Z,9.90
2022-09-21T21:32:53.381Z,9.94
2022-09-21T21:35:26.765Z,9.94
2022-09-21T21:37:56.884Z,9.97
2022-09-21T21:40:26.049Z,10.15
2022-09-21T21:42:59.167Z,10.15
2022-09-21T21:45:29.074Z,10.20
2022-09-21T21:47:59.600Z,10.03
2022-09-21T21:50:28.282Z,10.03
2022-09-21T21:52:59.118Z,9.83
2022-09-21T21:55:26.814Z,9.71
2022-09-21T21:57:57.607Z,9.56
2022-09-21T22:00:25.168Z,9.40
2022-09-21T22:02:58.229Z,9.16
2022-09-21T22:05:28.161Z,9.20
2022-09-21T22:07:55.803Z,9.32
2022-09-21T22:10:25.485Z,9.38
2022-09-21T22:12:53.089Z,9.45
2022-09-21T22:15:23.712Z,9.50
2022-09-21T22:17:51.290Z,9.48
2022-09-21T22:20:18.576Z,9.43
2022-09-21T22:22:46.177Z,9.34
2022-09-21T22:25:19.261Z,9.33
2022-09-21T22:27:49.684Z,9.18
2022-09-21T22:30:20.398Z,9.26
2022-09-21T22:32:48.175Z,9.02
2022-09-21T22:35:16.348Z,8.78
2022-09-21T22:37:46.362Z,8.85
2022-09-21T22:40:14.253Z,8.95
2022-09-21T22:42:41.884Z,8.98
2022-09-21T22:45:09.646Z,9.17
2022-09-21T22:47:39.658Z,8.94
2022-09-21T22:50:08.157Z,8.72
2022-09-21T22:52:35.796Z,8.70
2022-09-21T22:55:04.580Z,8.52
2022-09-21T22:57:32.155Z,8.37
2022-09-21T23:00:02.764Z,8.51
2022-09-21T23:02:32.676Z,8.75
2022-09-21T23:05:04.635Z,8.91
2022-09-21T23:07:32.111Z,9.04
2022-09-21T23:10:01.062Z,8.68
2022-09-21T23:12:28.451Z,8.56
2022-09-21T23:14:58.568Z,8.41
2022-09-21T23:17:26.001Z,8.35
2022-09-21T23:19:53.487Z,8.34
2022-09-21T23:22:20.863Z,8.20
2022-09-21T23:24:52.380Z,8.32
2022-09-21T23:27:22.779Z,8.39
2022-09-21T23:29:50.113Z,8.14
2022-09-21T23:32:17.608Z,8.05
2022-09-21T23:34:45.414Z,7.94
2022-09-21T23:37:13.005Z,7.52
2022-09-21T23:39:40.351Z,7.60
2022-09-21T23:42:10.882Z,7.54
2022-09-21T23:44:38.567Z,7.60
2022-09-21T23:47:07.246Z,7.78
2022-09-21T23:49:39.183Z,7.65
2022-09-21T23:52:06.729Z,7.81
2022-09-21T23:54:37.360Z,7.91
2022-09-21T23:57:08.323Z,7.65
2022-09-21T23:59:36.065Z,7.38
